Time;durP1;ratioP1;P1;durP2;ratioP2;P2;SDS_P1;SDS_P2;PMS_P1;PMS_P2;Temp;Humidity;BMP_temperature;BMP_pressure;BME280_temperature;BME280_humidity;BME280_pressure;Samples;Min_cycle;Max_cycle;Signal;HPM_P1;HPM_P2
2023/08/19 00:02:01;;;;;;;1.60;1.60;;;24.40;78.40;;;;;;5064252;28;43423;-70
2023/08/19 00:04:29;;;;;;;1.52;1.52;;;24.40;78.50;;;;;;5066043;28;43526;-70
2023/08/19 00:06:57;;;;;;;1.70;1.70;;;24.30;78.70;;;;;;5047643;28;45380;-70
2023/08/19 00:09:27;;;;;;;1.67;1.67;;;24.30;78.80;;;;;;5062516;28;43635;-71
2023/08/19 00:11:55;;;;;;;1.60;1.60;;;24.30;79.10;;;;;;5063083;28;43430;-70
2023/08/19 00:14:23;;;;;;;1.80;1.80;;;24.20;78.90;;;;;;5063179;28;43899;-70
2023/08/19 00:16:53;;;;;;;1.60;1.60;;;24.20;79.10;;;;;;5062714;28;43896;-69
2023/08/19 00:19:21;;;;;;;1.73;1.65;;;24.20;79.00;;;;;;5060696;28;43428;-69
2023/08/19 00:21:49;;;;;;;1.88;1.88;;;24.10;79.20;;;;;;5060945;28;43523;-69
2023/08/19 00:24:17;;;;;;;1.60;1.60;;;24.20;79.10;;;;;;5065658;28;43444;-69
2023/08/19 00:26:45;;;;;;;1.80;1.80;;;24.20;78.80;;;;;;5062685;28;43623;-71
2023/08/19 00:29:13;;;;;;;1.70;1.70;;;24.40;78.50;;;;;;5064736;28;43573;-70
2023/08/19 00:31:41;;;;;;;1.80;1.80;;;24.50;78.10;;;;;;5045701;28;43608;-71
2023/08/19 00:34:10;;;;;;;1.60;1.60;;;24.50;77.80;;;;;;5065673;28;43540;-70
2023/08/19 00:36:38;;;;;;;1.65;1.65;;;24.50;77.90;;;;;;5045377;28;45818;-68
2023/08/19 00:39:06;;;;;;;1.60;1.60;;;24.50;78.50;;;;;;5064769;28;43740;-70
2023/08/19 00:41:34;;;;;;;1.63;1.63;;;24.40;78.30;;;;;;5043722;28;43546;-68
2023/08/19 00:44:03;;;;;;;1.70;1.70;;;24.40;78.40;;;;;;5064435;28;43501;-69
2023/08/19 00:46:31;;;;;;;1.70;1.70;;;24.40;78.80;;;;;;5065334;28;44036;-71
2023/08/19 00:48:59;;;;;;;1.70;1.70;;;24.30;78.80;;;;;;5045497;28;43664;-69
2023/08/19 00:51:29;;;;;;;1.60;1.60;;;24.30;79.00;;;;;;5065329;28;43527;-69
2023/08/19 00:53:57;;;;;;;1.70;1.70;;;24.30;78.90;;;;;;5065870;28;43490;-68
2023/08/19 00:56:25;;;;;;;1.80;1.80;;;24.30;79.10;;;;;;5045956;28;44149;-69
2023/08/19 00:58:53;;;;;;;1.53;1.53;;;24.20;79.10;;;;;;5066218;28;44127;-71
2023/08/19 01:01:21;;;;;;;1.67;1.67;;;24.20;79.30;;;;;;5056570;28;43516;-67
2023/08/19 01:03:49;;;;;;;1.80;1.70;;;24.20;79.10;;;;;;5058541;22;44237;-72
2023/08/19 01:06:23;;;;;;;1.80;1.80;;;24.30;78.90;;;;;;5059183;28;45596;-74
2023/08/19 01:08:56;;;;;;;1.88;1.88;;;24.40;78.30;;;;;;5048084;28;44373;-74
2023/08/19 01:11:38;;;;;;;1.70;1.70;;;24.50;78.00;;;;;;5053892;28;43530;-74
2023/08/19 01:14:09;;;;;;;1.60;1.60;;;24.50;77.90;;;;;;5034124;28;43439;-75
2023/08/19 01:16:37;;;;;;;2.00;2.00;;;24.50;78.20;;;;;;5041805;28;45936;-75
2023/08/19 01:19:05;;;;;;;1.80;1.73;;;24.40;78.40;;;;;;5035769;28;44870;-75
2023/08/19 01:21:34;;;;;;;1.80;1.80;;;24.40;78.40;;;;;;5061143;28;43482;-74
2023/08/19 01:24:04;;;;;;;1.90;1.90;;;24.40;78.50;;;;;;5052010;28;44090;-74
2023/08/19 01:26:33;;;;;;;1.90;1.90;;;24.30;78.80;;;;;;5051231;28;43639;-75
2023/08/19 01:29:01;;;;;;;1.73;1.73;;;24.30;78.80;;;;;;5044466;28;44890;-74
2023/08/19 01:31:29;;;;;;;1.88;1.88;;;24.30;79.10;;;;;;5055747;28;43352;-75
2023/08/19 01:33:57;;;;;;;1.85;1.85;;;24.20;78.80;;;;;;5066498;28;43500;-75
2023/08/19 01:36:27;;;;;;;1.98;1.98;;;24.30;78.60;;;;;;5055022;28;43640;-74
2023/08/19 01:38:59;;;;;;;1.70;1.70;;;24.40;78.40;;;;;;5064369;28;43513;-75
2023/08/19 01:41:28;;;;;;;1.90;1.90;;;24.40;78.40;;;;;;5058095;28;43420;-75
2023/08/19 01:44:00;;;;;;;1.80;1.80;;;24.40;78.70;;;;;;5049268;28;43572;-76
2023/08/19 01:46:28;;;;;;;1.80;1.80;;;24.40;78.60;;;;;;5057346;28;43604;-74
2023/08/19 01:48:56;;;;;;;1.70;1.70;;;24.40;78.60;;;;;;5053446;28;43474;-75
2023/08/19 01:51:24;;;;;;;1.90;1.90;;;24.40;78.80;;;;;;5041910;28;43547;-75
2023/08/19 01:53:53;;;;;;;1.80;1.80;;;24.30;79.00;;;;;;5040584;28;43883;-75
2023/08/19 01:56:23;;;;;;;1.70;1.70;;;24.30;79.00;;;;;;5039624;28;45521;-75
2023/08/19 01:58:52;;;;;;;1.70;1.70;;;24.30;78.90;;;;;;5059836;28;44968;-74
2023/08/19 02:01:21;;;;;;;1.80;1.80;;;24.30;79.10;;;;;;5049790;28;43531;-75
2023/08/19 02:03:49;;;;;;;2.13;2.03;;;24.20;79.00;;;;;;5063036;28;43774;-75
2023/08/19 02:06:17;;;;;;;1.83;1.83;;;24.20;79.20;;;;;;5055804;28;44055;-74
2023/08/19 02:08:46;;;;;;;2.05;2.05;;;24.20;79.10;;;;;;5062139;28;43995;-73
2023/08/19 02:11:14;;;;;;;2.00;2.00;;;24.30;78.80;;;;;;5076747;28;43551;-73
2023/08/19 02:13:43;;;;;;;1.90;1.90;;;24.40;78.40;;;;;;5073741;28;43452;-73
2023/08/19 02:16:11;;;;;;;1.80;1.80;;;24.50;78.00;;;;;;5072576;28;44965;-73
2023/08/19 02:18:40;;;;;;;1.90;1.90;;;24.50;77.90;;;;;;5073617;28;44441;-73
2023/08/19 02:21:08;;;;;;;2.00;1.90;;;24.50;78.20;;;;;;5067382;28;44038;-72
2023/08/19 02:23:36;;;;;;;2.00;2.00;;;24.40;78.40;;;;;;5062502;28;43464;-72
2023/08/19 02:26:05;;;;;;;2.10;2.10;;;24.40;78.40;;;;;;5079825;28;45694;-73
2023/08/19 02:28:33;;;;;;;2.43;2.43;;;24.30;78.70;;;;;;5061078;28;44723;-73
2023/08/19 02:31:04;;;;;;;2.20;2.20;;;24.30;79.10;;;;;;5063091;28;44346;-73
2023/08/19 02:33:32;;;;;;;2.67;2.67;;;24.20;79.30;;;;;;5066190;28;43468;-72
2023/08/19 02:36:01;;;;;;;2.00;2.00;;;24.20;79.50;;;;;;5062530;28;43685;-72
2023/08/19 02:38:29;;;;;;;2.10;2.10;;;24.10;79.50;;;;;;5063434;28;43478;-72
2023/08/19 02:40:58;;;;;;;2.00;2.00;;;24.10;79.40;;;;;;5066030;28;43475;-72
2023/08/19 02:43:26;;;;;;;2.08;2.08;;;24.20;79.10;;;;;;5067453;28;43368;-72
2023/08/19 02:45:54;;;;;;;2.00;2.00;;;24.40;78.70;;;;;;5066759;28;44045;-72
2023/08/19 02:48:22;;;;;;;1.90;1.90;;;24.50;78.10;;;;;;5062284;28;43486;-72
2023/08/19 02:50:53;;;;;;;1.90;1.90;;;24.70;77.30;;;;;;5064748;28;43412;-71
2023/08/19 02:53:23;;;;;;;1.85;1.85;;;25.00;76.60;;;;;;5061915;28;43407;-72
2023/08/19 02:55:52;;;;;;;1.70;1.70;;;25.20;75.90;;;;;;5067506;28;45660;-71
2023/08/19 02:58:20;;;;;;;1.88;1.88;;;25.30;75.10;;;;;;5062417;28;44637;-71
2023/08/19 03:00:48;;;;;;;1.85;1.85;;;25.50;74.60;;;;;;5065556;28;43491;-71
2023/08/19 03:03:17;;;;;;;1.80;1.80;;;25.60;74.20;;;;;;5094368;28;43458;-72
2023/08/19 03:05:45;;;;;;;2.03;2.03;;;25.70;73.90;;;;;;5065086;28;46548;-72
2023/08/19 03:08:13;;;;;;;1.85;1.85;;;25.70;73.70;;;;;;5065679;28;45005;-72
2023/08/19 03:10:42;;;;;;;1.92;1.83;;;25.60;73.80;;;;;;5062173;28;43529;-72
2023/08/19 03:13:10;;;;;;;2.13;2.13;;;25.50;74.30;;;;;;5062840;28;43566;-72
2023/08/19 03:15:39;;;;;;;1.92;1.92;;;25.30;74.80;;;;;;5061676;28;44540;-71
2023/08/19 03:18:07;;;;;;;1.98;1.90;;;25.20;75.30;;;;;;5057789;28;43726;-71
2023/08/19 03:20:35;;;;;;;1.90;1.90;;;25.20;75.60;;;;;;5042312;28;44823;-71
2023/08/19 03:23:03;;;;;;;1.63;1.63;;;25.00;75.90;;;;;;5042807;28;43486;-72
2023/08/19 03:25:31;;;;;;;1.90;1.90;;;25.00;76.40;;;;;;5043861;28;43942;-72
2023/08/19 03:28:01;;;;;;;1.92;1.92;;;24.80;76.80;;;;;;5043238;28;43457;-71
2023/08/19 03:30:29;;;;;;;2.00;2.00;;;24.80;76.90;;;;;;5040498;28;44175;-73
2023/08/19 03:32:57;;;;;;;1.90;1.90;;;24.80;76.90;;;;;;5047504;28;44001;-72
2023/08/19 03:35:26;;;;;;;2.00;2.00;;;24.80;76.70;;;;;;5038155;28;45755;-72
2023/08/19 03:37:54;;;;;;;2.00;2.00;;;24.80;76.90;;;;;;5043947;28;43498;-73
2023/08/19 03:40:22;;;;;;;2.00;2.00;;;24.80;77.20;;;;;;5042599;28;43507;-73
2023/08/19 03:42:51;;;;;;;1.92;1.92;;;24.70;77.40;;;;;;5042537;28;43645;-73
2023/08/19 03:45:20;;;;;;;2.00;2.00;;;24.70;77.40;;;;;;5044486;28;43956;-72
2023/08/19 03:47:48;;;;;;;1.95;1.95;;;24.70;77.60;;;;;;5042304;28;43786;-72
2023/08/19 03:50:16;;;;;;;1.90;1.90;;;24.60;77.80;;;;;;5041829;28;43482;-72
2023/08/19 03:52:44;;;;;;;2.10;2.03;;;24.50;77.90;;;;;;5043244;28;43456;-72
2023/08/19 03:55:12;;;;;;;1.85;1.85;;;24.50;77.90;;;;;;5043676;28;45819;-73
2023/08/19 03:57:41;;;;;;;2.00;2.00;;;24.60;77.80;;;;;;5040246;28;44733;-72
2023/08/19 04:00:11;;;;;;;2.00;1.90;;;24.70;77.50;;;;;;5057549;28;43468;-71
2023/08/19 04:02:43;;;;;;;2.08;2.08;;;24.70;77.10;;;;;;5041468;28;43450;-71
2023/08/19 04:05:12;;;;;;;2.00;2.00;;;24.80;77.20;;;;;;5037198;28;45502;-73
2023/08/19 04:07:40;;;;;;;2.10;2.10;;;24.70;77.40;;;;;;5041576;28;43396;-73
2023/08/19 04:10:08;;;;;;;1.92;1.90;;;24.70;77.70;;;;;;5040355;28;43490;-73
2023/08/19 04:12:37;;;;;;;1.90;1.90;;;24.60;77.70;;;;;;5044479;28;43450;-73
2023/08/19 04:15:08;;;;;;;1.88;1.88;;;24.60;77.80;;;;;;5041091;28;45868;-73
2023/08/19 04:17:36;;;;;;;1.90;1.90;;;24.50;78.10;;;;;;5037115;28;44717;-73
2023/08/19 04:20:09;;;;;;;2.13;2.08;;;24.50;78.30;;;;;;5042411;28;43446;-73
2023/08/19 04:22:37;;;;;;;1.92;1.92;;;24.40;78.30;;;;;;5038776;28;43404;-73
2023/08/19 04:25:06;;;;;;;1.92;1.92;;;24.40;78.30;;;;;;5041984;28;44976;-73
2023/08/19 04:27:34;;;;;;;2.10;2.10;;;24.40;78.50;;;;;;5045267;28;44702;-76
2023/08/19 04:30:05;;;;;;;2.00;2.00;;;24.40;78.70;;;;;;5040339;28;43462;-75
2023/08/19 04:32:33;;;;;;;1.80;1.80;;;24.40;78.70;;;;;;5038598;28;43520;-74
2023/08/19 04:35:04;;;;;;;2.00;2.00;;;24.40;78.60;;;;;;5041458;28;46807;-76
2023/08/19 04:37:33;;;;;;;2.17;2.10;;;24.50;78.30;;;;;;5040398;28;43502;-76
2023/08/19 04:40:05;;;;;;;1.95;1.95;;;24.60;77.90;;;;;;5037127;28;43395;-75
2023/08/19 04:42:39;;;;;;;2.00;2.00;;;24.70;77.70;;;;;;5041625;28;43604;-75
2023/08/19 04:45:09;;;;;;;1.80;1.70;;;24.70;77.70;;;;;;5042469;28;44170;-75
2023/08/19 04:47:42;;;;;;;1.90;1.90;;;24.60;78.00;;;;;;5043825;28;43613;-76
2023/08/19 04:50:10;;;;;;;2.10;2.10;;;24.60;78.20;;;;;;5076810;28;43915;-75
2023/08/19 04:52:40;;;;;;;1.95;1.95;;;24.50;78.10;;;;;;5037249;28;43562;-75
2023/08/19 04:55:09;;;;;;;1.80;1.80;;;24.50;78.30;;;;;;5042364;28;43985;-76
2023/08/19 04:57:37;;;;;;;1.70;1.70;;;24.50;78.50;;;;;;5037640;28;44737;-75
2023/08/19 05:00:11;;;;;;;1.80;1.80;;;24.40;78.60;;;;;;5058536;28;43558;-76
2023/08/19 05:02:41;;;;;;;1.67;1.52;;;24.40;78.50;;;;;;5041428;28;43491;-74
2023/08/19 05:05:09;;;;;;;1.73;1.73;;;24.50;78.40;;;;;;5041623;28;45596;-74
2023/08/19 05:07:37;;;;;;;1.70;1.70;;;24.50;78.00;;;;;;5032453;28;44396;-74
2023/08/19 05:10:09;;;;;;;1.95;1.90;;;24.60;78.00;;;;;;5041799;28;43498;-74
2023/08/19 05:12:37;;;;;;;1.98;1.88;;;24.50;78.20;;;;;;5042243;28;43700;-74
2023/08/19 05:15:06;;;;;;;2.00;2.00;;;24.50;78.40;;;;;;5038159;28;46023;-74
2023/08/19 05:17:34;;;;;;;1.92;1.92;;;24.50;78.20;;;;;;5058909;28;44694;-74
2023/08/19 05:20:04;;;;;;;2.10;2.10;;;24.50;78.30;;;;;;5042606;28;43589;-74
2023/08/19 05:22:32;;;;;;;1.80;1.70;;;24.50;78.50;;;;;;5075905;28;43595;-74
2023/08/19 05:25:00;;;;;;;2.10;2.10;;;24.40;78.50;;;;;;5042434;28;45887;-76
2023/08/19 05:27:30;;;;;;;2.15;2.15;;;24.40;78.60;;;;;;5042162;28;44897;-75
2023/08/19 05:29:58;;;;;;;2.03;1.95;;;24.40;78.60;;;;;;5043062;28;43567;-75
2023/08/19 05:32:26;;;;;;;1.85;1.85;;;24.40;78.70;;;;;;5038595;28;43509;-75
2023/08/19 05:34:54;;;;;;;2.00;2.00;;;24.40;78.80;;;;;;5042221;28;43690;-75
2023/08/19 05:37:22;;;;;;;1.90;1.90;;;24.30;78.90;;;;;;5041249;28;43957;-76
2023/08/19 05:39:50;;;;;;;1.80;1.80;;;24.40;78.90;;;;;;5040521;28;43484;-71
2023/08/19 05:42:18;;;;;;;1.80;1.80;;;24.40;78.50;;;;;;5039821;28;43400;-73
2023/08/19 05:44:48;;;;;;;1.80;1.80;;;24.50;78.10;;;;;;5039160;28;44109;-73
2023/08/19 05:47:16;;;;;;;2.20;2.20;;;24.60;77.80;;;;;;5039274;28;43397;-72
2023/08/19 05:49:44;;;;;;;1.90;1.90;;;24.60;77.70;;;;;;5040306;28;43481;-74
2023/08/19 05:52:11;;;;;;;1.80;1.80;;;24.60;77.90;;;;;;5043207;28;43398;-71
2023/08/19 05:54:39;;;;;;;1.80;1.80;;;24.50;78.10;;;;;;5038908;28;45670;-71
2023/08/19 05:57:07;;;;;;;1.83;1.83;;;24.50;78.20;;;;;;5056972;28;43802;-71
2023/08/19 05:59:38;;;;;;;2.07;2.07;;;24.50;78.20;;;;;;5037387;28;43827;-71
2023/08/19 06:02:07;;;;;;;1.80;1.80;;;24.50;78.40;;;;;;5041268;28;43432;-71
2023/08/19 06:04:35;;;;;;;1.90;1.90;;;24.40;78.50;;;;;;5041162;28;43888;-71
2023/08/19 06:07:03;;;;;;;1.83;1.80;;;24.40;78.60;;;;;;5040164;28;44893;-71
2023/08/19 06:09:31;;;;;;;1.80;1.80;;;24.40;78.40;;;;;;5042121;28;43528;-72
2023/08/19 06:11:59;;;;;;;1.80;1.80;;;24.50;78.10;;;;;;5044317;28;43786;-72
2023/08/19 06:14:29;;;;;;;1.80;1.80;;;24.60;77.90;;;;;;5041562;28;43625;-72
2023/08/19 06:16:57;;;;;;;2.00;2.00;;;24.60;77.80;;;;;;5059948;28;44683;-71
2023/08/19 06:19:26;;;;;;;1.70;1.70;;;24.60;77.90;;;;;;5046505;28;43411;-71
2023/08/19 06:21:54;;;;;;;2.00;2.00;;;24.50;78.10;;;;;;5047049;28;43361;-73
2023/08/19 06:24:22;;;;;;;1.90;1.80;;;24.50;78.30;;;;;;5042318;28;45581;-73
2023/08/19 06:26:50;;;;;;;1.80;1.80;;;24.50;78.30;;;;;;5042837;28;43491;-71
2023/08/19 06:29:18;;;;;;;1.80;1.80;;;24.40;78.30;;;;;;5043949;28;43595;-71
2023/08/19 06:31:47;;;;;;;1.90;1.90;;;24.40;78.40;;;;;;5045824;28;43410;-74
2023/08/19 06:34:15;;;;;;;1.70;1.70;;;24.40;78.70;;;;;;5044351;28;44536;-72
2023/08/19 06:36:44;;;;;;;1.80;1.80;;;24.40;78.70;;;;;;5042986;28;44985;-71
2023/08/19 06:39:17;;;;;;;1.80;1.80;;;24.40;78.30;;;;;;5046945;28;43542;-71
2023/08/19 06:41:44;;;;;;;1.80;1.80;;;24.50;77.90;;;;;;5044650;28;43493;-72
2023/08/19 06:44:18;;;;;;;1.80;1.80;;;24.60;77.70;;;;;;5045603;28;43772;-72
2023/08/19 06:46:46;;;;;;;1.73;1.73;;;24.60;77.70;;;;;;5043544;28;43403;-73
2023/08/19 06:49:15;;;;;;;1.73;1.73;;;24.50;77.90;;;;;;5042715;28;43388;-71
2023/08/19 06:51:45;;;;;;;1.95;1.95;;;24.50;78.90;;;;;;5044120;28;43466;-71
2023/08/19 06:54:13;;;;;;;1.90;1.90;;;24.40;78.10;;;;;;5043186;28;43624;-73
2023/08/19 06:56:43;;;;;;;1.70;1.70;;;24.40;78.20;;;;;;5046954;28;43365;-71
2023/08/19 06:59:13;;;;;;;1.90;1.90;;;24.40;78.30;;;;;;5043347;28;44939;-71
2023/08/19 07:01:41;;;;;;;1.95;1.95;;;24.30;78.50;;;;;;5045443;28;43526;-71
2023/08/19 07:04:09;;;;;;;1.93;1.93;;;24.30;78.60;;;;;;5043565;28;43874;-72
2023/08/19 07:06:38;;;;;;;1.77;1.77;;;24.30;78.60;;;;;;5044995;28;43770;-72
2023/08/19 07:09:07;;;;;;;1.92;1.80;;;24.30;78.70;;;;;;5042450;28;44119;-72
2023/08/19 07:11:36;;;;;;;1.80;1.80;;;24.30;78.70;;;;;;5041182;28;43480;-71
2023/08/19 07:14:04;;;;;;;1.90;1.90;;;24.30;79.00;;;;;;5046423;28;44034;-71
2023/08/19 07:16:33;;;;;;;1.80;1.80;;;24.30;78.90;;;;;;5043703;28;43295;-71
2023/08/19 07:19:03;;;;;;;1.50;1.50;;;24.30;79.00;;;;;;5046323;28;43676;-71
2023/08/19 07:21:31;;;;;;;1.90;1.90;;;24.30;79.00;;;;;;5046619;28;43467;-71
2023/08/19 07:23:59;;;;;;;1.92;1.92;;;24.20;79.10;;;;;;5046969;28;45110;-71
2023/08/19 07:26:29;;;;;;;1.70;1.70;;;24.20;78.90;;;;;;5045091;28;43416;-72
2023/08/19 07:28:58;;;;;;;1.83;1.83;;;24.30;78.70;;;;;;5038623;28;43441;-72
2023/08/19 07:31:27;;;;;;;1.88;1.88;;;24.50;78.30;;;;;;5041960;28;43487;-71
2023/08/19 07:33:55;;;;;;;2.20;2.10;;;24.60;77.90;;;;;;5041506;28;45677;-71
2023/08/19 07:36:23;;;;;;;2.20;2.20;;;24.60;77.50;;;;;;5040344;28;43381;-73
2023/08/19 07:38:51;;;;;;;2.13;2.13;;;24.60;77.60;;;;;;5039210;28;44044;-73
2023/08/19 07:41:19;;;;;;;2.03;2.03;;;24.60;77.80;;;;;;5044921;28;43957;-72
2023/08/19 07:43:49;;;;;;;2.00;2.00;;;24.50;77.90;;;;;;5042115;28;43915;-72
2023/08/19 07:46:17;;;;;;;1.95;1.95;;;24.50;78.00;;;;;;5044356;28;43550;-72
2023/08/19 07:48:45;;;;;;;2.60;2.40;;;24.50;78.10;;;;;;5060913;28;43463;-72
2023/08/19 07:51:13;;;;;;;2.43;2.37;;;24.40;78.20;;;;;;5044367;28;43467;-72
2023/08/19 07:53:41;;;;;;;1.92;1.92;;;24.40;78.50;;;;;;5041873;28;43611;-72
2023/08/19 07:56:10;;;;;;;2.00;2.00;;;24.30;78.40;;;;;;5040557;28;44914;-72
2023/08/19 07:58:38;;;;;;;2.30;2.30;;;24.40;78.60;;;;;;5039639;28;43427;-73
2023/08/19 08:01:07;;;;;;;2.45;2.35;;;24.30;78.60;;;;;;5041520;28;43571;-72
2023/08/19 08:03:35;;;;;;;2.10;2.10;;;24.30;78.80;;;;;;5043894;28;43880;-72
2023/08/19 08:06:03;;;;;;;2.50;2.40;;;24.30;78.80;;;;;;5045968;28;43949;-72
2023/08/19 08:08:31;;;;;;;2.27;2.17;;;24.30;78.80;;;;;;5046379;28;43494;-71
2023/08/19 08:10:59;;;;;;;2.83;2.63;;;24.30;78.80;;;;;;5040061;28;43418;-71
2023/08/19 08:13:27;;;;;;;2.50;2.40;;;24.30;79.00;;;;;;5041573;28;43632;-72
2023/08/19 08:15:55;;;;;;;2.40;2.30;;;24.20;79.00;;;;;;5038312;28;43507;-72
2023/08/19 08:18:25;;;;;;;2.50;2.30;;;24.30;79.00;;;;;;5038638;28;43484;-72
2023/08/19 08:20:53;;;;;;;2.40;2.30;;;24.40;78.60;;;;;;5037649;28;43345;-72
2023/08/19 08:23:21;;;;;;;2.50;2.40;;;24.50;78.10;;;;;;5042016;28;43776;-72
2023/08/19 08:25:50;;;;;;;2.43;2.33;;;24.60;77.80;;;;;;5038059;28;43476;-72
2023/08/19 08:28:18;;;;;;;2.53;2.42;;;24.60;77.70;;;;;;5031326;28;43906;-72
2023/08/19 08:30:46;;;;;;;2.40;2.30;;;24.50;77.80;;;;;;5041111;28;43947;-72
2023/08/19 08:33:19;;;;;;;2.35;2.28;;;24.50;78.10;;;;;;5029134;28;43601;-72
2023/08/19 08:35:48;;;;;;;2.45;2.35;;;24.50;78.20;;;;;;5045044;28;43511;-71
2023/08/19 08:38:16;;;;;;;2.50;2.40;;;24.40;78.20;;;;;;5041025;28;43755;-72
2023/08/19 08:40:44;;;;;;;2.53;2.43;;;24.40;78.30;;;;;;5043163;28;43399;-72
2023/08/19 08:43:12;;;;;;;2.40;2.30;;;24.30;78.60;;;;;;5043927;28;45942;-72
2023/08/19 08:45:40;;;;;;;2.47;2.37;;;24.40;78.70;;;;;;5049241;28;44708;-72
2023/08/19 08:48:08;;;;;;;2.50;2.40;;;24.40;78.40;;;;;;5038094;28;43417;-72
2023/08/19 08:50:36;;;;;;;2.67;2.58;;;24.50;78.10;;;;;;5047326;28;43573;-72
2023/08/19 08:53:06;;;;;;;2.60;2.40;;;24.50;77.70;;;;;;5028165;28;43597;-72
2023/08/19 08:55:34;;;;;;;2.58;2.47;;;24.60;77.70;;;;;;5040127;28;43379;-72
2023/08/19 08:58:02;;;;;;;1.97;1.97;;;24.50;77.70;;;;;;5040910;28;43779;-72
2023/08/19 09:00:30;;;;;;;2.50;2.40;;;24.50;77.90;;;;;;5041384;28;44388;-72
2023/08/19 09:02:58;;;;;;;2.42;2.40;;;24.40;78.20;;;;;;5043127;28;43924;-72
2023/08/19 09:05:29;;;;;;;2.38;2.33;;;24.40;78.20;;;;;;5041262;28;44775;-72
2023/08/19 09:07:57;;;;;;;2.28;2.25;;;24.40;78.30;;;;;;5056518;28;43466;-74
2023/08/19 09:10:26;;;;;;;2.70;2.60;;;24.40;78.60;;;;;;5044182;28;44165;-72
2023/08/19 09:12:57;;;;;;;2.00;2.00;;;24.30;78.70;;;;;;5042246;28;43714;-75
2023/08/19 09:15:25;;;;;;;2.45;2.30;;;24.30;78.70;;;;;;5043919;28;44042;-74
2023/08/19 09:17:52;;;;;;;2.00;2.00;;;24.30;78.70;;;;;;5060128;28;43412;-73
2023/08/19 09:20:20;;;;;;;2.50;2.40;;;24.30;78.80;;;;;;5038628;28;43514;-73
2023/08/19 09:22:50;;;;;;;2.20;2.20;;;24.20;78.90;;;;;;5043128;28;44018;-74
2023/08/19 09:25:18;;;;;;;2.10;2.10;;;24.30;78.90;;;;;;5039892;28;45062;-74
2023/08/19 09:27:48;;;;;;;2.20;2.20;;;24.40;78.60;;;;;;5042780;28;45371;-73
2023/08/19 09:30:16;;;;;;;2.00;2.00;;;24.50;78.10;;;;;;5044070;28;43440;-73
2023/08/19 09:32:45;;;;;;;2.30;2.30;;;24.60;77.90;;;;;;5041450;28;45787;-74
2023/08/19 09:35:14;;;;;;;2.17;2.15;;;24.50;77.60;;;;;;5039585;28;43554;-75
2023/08/19 09:37:43;;;;;;;2.20;2.20;;;24.50;77.80;;;;;;5070083;28;43426;-75
2023/08/19 09:40:17;;;;;;;2.35;2.35;;;24.50;78.10;;;;;;5043023;28;43563;-75
2023/08/19 09:42:49;;;;;;;2.15;2.15;;;24.40;78.10;;;;;;5037558;28;46036;-76
2023/08/19 09:45:18;;;;;;;2.30;2.30;;;24.40;78.20;;;;;;5059620;28;44393;-75
2023/08/19 09:47:47;;;;;;;2.00;2.00;;;24.40;78.30;;;;;;5040945;28;43761;-75
2023/08/19 09:50:16;;;;;;;2.22;2.13;;;24.30;78.60;;;;;;5045704;28;43424;-76
2023/08/19 09:52:53;;;;;;;2.00;2.00;;;24.30;78.60;;;;;;5048016;28;45378;-75
2023/08/19 09:55:22;;;;;;;2.10;2.10;;;24.30;78.70;;;;;;5041506;28;43375;-75
2023/08/19 09:57:52;;;;;;;2.17;2.07;;;24.30;78.70;;;;;;5041360;28;43460;-76
2023/08/19 10:00:20;;;;;;;2.00;2.00;;;24.30;78.90;;;;;;5034053;28;43462;-75
2023/08/19 10:02:48;;;;;;;2.20;2.20;;;24.30;79.00;;;;;;5045029;28;43761;-75
2023/08/19 10:05:16;;;;;;;2.17;2.17;;;24.30;78.70;;;;;;5045180;28;43772;-75
2023/08/19 10:07:48;;;;;;;2.55;2.35;;;24.40;78.30;;;;;;5073885;28;43817;-75
2023/08/19 10:10:16;;;;;;;2.00;2.00;;;24.50;77.90;;;;;;5041529;28;43881;-76
2023/08/19 10:12:44;;;;;;;2.03;2.03;;;24.60;77.70;;;;;;5047170;28;43579;-75
2023/08/19 10:15:14;;;;;;;1.88;1.88;;;24.60;77.80;;;;;;5043717;28;43447;-75
2023/08/19 10:17:42;;;;;;;1.90;1.90;;;24.50;77.90;;;;;;5039459;28;43917;-75
2023/08/19 10:20:13;;;;;;;2.30;2.05;;;24.50;78.10;;;;;;5060087;28;43598;-76
2023/08/19 10:22:42;;;;;;;1.90;1.90;;;24.40;78.20;;;;;;5045752;28;44049;-76
2023/08/19 10:25:10;;;;;;;2.30;2.20;;;24.40;78.30;;;;;;5044621;28;43464;-75
2023/08/19 10:27:38;;;;;;;2.17;2.08;;;24.40;78.60;;;;;;5044911;28;43478;-76
2023/08/19 10:30:31;;;;;;;2.30;2.20;;;24.40;78.70;;;;;;5044717;28;43506;-75
2023/08/19 10:33:05;;;;;;;2.00;2.00;;;24.30;78.70;;;;;;5040510;28;43603;-75
2023/08/19 10:35:58;;;;;;;1.90;1.90;;;24.30;78.70;;;;;;5041034;28;43487;-76
2023/08/19 10:38:33;;;;;;;2.30;2.20;;;24.30;79.00;;;;;;5043167;28;44112;-74
2023/08/19 10:41:02;;;;;;;2.20;2.10;;;24.30;79.00;;;;;;5041852;28;43593;-75
2023/08/19 10:43:48;;;;;;;2.00;2.00;;;24.30;79.00;;;;;;5041100;28;45352;-75
2023/08/19 10:46:19;;;;;;;1.90;1.90;;;24.30;79.10;;;;;;5040814;28;44667;-74
2023/08/19 10:48:47;;;;;;;2.20;2.20;;;24.30;79.20;;;;;;5077993;28;43510;-74
2023/08/19 10:51:15;;;;;;;2.13;2.03;;;24.30;79.30;;;;;;5036565;28;43509;-74
2023/08/19 10:53:49;;;;;;;2.13;2.13;;;24.30;79.30;;;;;;5043314;28;45711;-75
2023/08/19 10:56:20;;;;;;;1.98;1.98;;;24.40;79.00;;;;;;5041065;28;44250;-76
2023/08/19 10:58:47;;;;;;;2.20;2.20;;;24.50;78.60;;;;;;5043647;28;43407;-76
2023/08/19 11:01:15;;;;;;;2.20;2.10;;;24.60;78.20;;;;;;5042255;28;43617;-75
2023/08/19 11:03:45;;;;;;;2.40;2.30;;;24.60;78.00;;;;;;5039427;28;44364;-75
2023/08/19 11:06:13;;;;;;;1.90;1.90;;;24.60;78.00;;;;;;5059220;28;44519;-76
2023/08/19 11:08:44;;;;;;;2.17;2.17;;;24.60;78.20;;;;;;5041000;28;43793;-74
2023/08/19 11:11:16;;;;;;;1.90;1.90;;;24.50;78.30;;;;;;5047107;28;43626;-76
2023/08/19 11:13:46;;;;;;;2.10;2.00;;;24.50;78.30;;;;;;5043503;28;43972;-76
2023/08/19 11:16:14;;;;;;;1.80;1.80;;;24.50;78.50;;;;;;5041123;28;43631;-75
2023/08/19 11:18:44;;;;;;;2.08;2.08;;;24.50;78.60;;;;;;5038278;28;43973;-75
2023/08/19 11:21:12;;;;;;;2.20;2.20;;;24.40;78.70;;;;;;5060011;28;43586;-76
2023/08/19 11:23:40;;;;;;;1.85;1.85;;;24.40;78.80;;;;;;5043670;28;45967;-74
2023/08/19 11:26:08;;;;;;;1.90;1.90;;;24.40;78.80;;;;;;5032462;28;43526;-75
2023/08/19 11:28:37;;;;;;;1.70;1.70;;;24.40;78.90;;;;;;5059070;28;43540;-72
2023/08/19 11:31:05;;;;;;;2.00;1.90;;;24.40;79.00;;;;;;5042488;28;44281;-72
2023/08/19 11:33:33;;;;;;;1.95;1.95;;;24.40;79.10;;;;;;5043533;28;44145;-72
2023/08/19 11:36:02;;;;;;;1.88;1.88;;;24.40;79.00;;;;;;5042378;28;43413;-76
2023/08/19 11:38:30;;;;;;;2.33;2.10;;;24.50;78.70;;;;;;5043969;28;44507;-72
2023/08/19 11:40:58;;;;;;;2.33;2.17;;;24.60;78.30;;;;;;5043927;28;43422;-72
2023/08/19 11:43:27;;;;;;;2.15;2.05;;;24.70;78.00;;;;;;5041592;28;46056;-72
2023/08/19 11:45:55;;;;;;;2.00;1.98;;;24.70;77.90;;;;;;5043116;28;43467;-73
2023/08/19 11:48:23;;;;;;;2.22;2.22;;;24.70;78.00;;;;;;5043053;28;43450;-73
2023/08/19 11:50:51;;;;;;;1.85;1.85;;;24.60;78.30;;;;;;5041076;28;43965;-72
2023/08/19 11:53:24;;;;;;;1.90;1.90;;;24.60;78.30;;;;;;5042224;28;43631;-72
2023/08/19 11:55:57;;;;;;;1.95;1.95;;;24.50;78.40;;;;;;5045116;28;43428;-72
2023/08/19 11:58:27;;;;;;;1.90;1.90;;;24.50;78.50;;;;;;5044281;28;43570;-72
2023/08/19 12:00:55;;;;;;;2.20;2.10;;;24.40;78.70;;;;;;5057972;28;43515;-72
2023/08/19 12:03:24;;;;;;;2.15;2.15;;;24.40;78.70;;;;;;5044973;28;43897;-70
2023/08/19 12:05:53;;;;;;;2.00;2.00;;;24.50;78.90;;;;;;5045605;28;43425;-73
2023/08/19 12:08:31;;;;;;;2.20;2.10;;;24.40;78.90;;;;;;5048369;28;43440;-70
2023/08/19 12:10:59;;;;;;;2.03;2.03;;;24.40;79.10;;;;;;5043864;28;43440;-71
2023/08/19 12:13:28;;;;;;;2.20;2.20;;;24.40;79.10;;;;;;5062051;28;46833;-71
2023/08/19 12:15:56;;;;;;;2.20;2.20;;;24.40;78.90;;;;;;5045093;28;43878;-70
2023/08/19 12:18:24;;;;;;;1.92;1.92;;;24.50;78.60;;;;;;5047650;28;43471;-70
2023/08/19 12:20:53;;;;;;;2.50;2.40;;;24.60;78.20;;;;;;5043746;28;43473;-73
2023/08/19 12:23:21;;;;;;;1.98;1.98;;;24.60;78.00;;;;;;5046882;28;43867;-71
2023/08/19 12:25:51;;;;;;;2.15;2.15;;;24.60;78.00;;;;;;5044381;28;43382;-70
2023/08/19 12:28:19;;;;;;;2.10;2.10;;;24.60;78.30;;;;;;5047188;28;44151;-73
2023/08/19 12:30:48;;;;;;;2.30;2.22;;;24.50;78.50;;;;;;5042876;28;44153;-70
2023/08/19 12:33:16;;;;;;;1.95;1.95;;;24.50;78.50;;;;;;5042576;28;43706;-70
2023/08/19 12:35:46;;;;;;;2.35;2.15;;;24.50;78.50;;;;;;5043970;28;43608;-71
2023/08/19 12:38:14;;;;;;;2.40;2.30;;;24.50;78.70;;;;;;5041511;28;43457;-71
2023/08/19 12:40:42;;;;;;;2.30;2.30;;;24.40;78.90;;;;;;5042692;28;43962;-71
2023/08/19 12:43:12;;;;;;;2.10;2.10;;;24.40;79.10;;;;;;5041654;28;43926;-71
2023/08/19 12:45:41;;;;;;;2.47;2.47;;;24.50;79.00;;;;;;5044199;28;44713;-72
2023/08/19 12:48:09;;;;;;;2.13;2.13;;;24.60;78.70;;;;;;5044128;28;43390;-71
2023/08/19 12:50:38;;;;;;;2.60;2.50;;;24.70;78.30;;;;;;5035496;28;43885;-70
2023/08/19 12:53:06;;;;;;;2.70;2.60;;;24.70;78.10;;;;;;5038161;28;44801;-72
2023/08/19 12:55:35;;;;;;;2.40;2.30;;;24.60;78.10;;;;;;5042872;28;43474;-71
2023/08/19 12:58:04;;;;;;;2.58;2.58;;;24.60;78.40;;;;;;5045472;28;43392;-72